Time;durP1;ratioP1;P1;durP2;ratioP2;P2;SDS_P1;SDS_P2;PMS_P1;PMS_P2;Temp;Humidity;BMP_temperature;BMP_pressure;BME280_temperature;BME280_humidity;BME280_pressure;Samples;Min_cycle;Max_cycle;Signal;HPM_P1;HPM_P2
2022/05/28 00:00:27;;;;;;;9.18;1.92;;;;;;;;;;5098963;28;20864;-15
2022/05/28 00:02:54;;;;;;;4.68;1.75;;;;;;;;;;5099601;28;20245;-15
2022/05/28 00:05:22;;;;;;;6.47;2.10;;;;;;;;;;5102770;28;20239;-15
2022/05/28 00:07:49;;;;;;;6.25;2.13;;;;;;;;;;5106495;27;20230;-15
2022/05/28 00:10:17;;;;;;;7.68;2.00;;;;;;;;;;5102859;28;20231;-15
2022/05/28 00:12:47;;;;;;;8.00;2.25;;;;;;;;;;5105948;28;20311;-15
2022/05/28 00:15:14;;;;;;;5.95;2.00;;;;;;;;;;5104556;28;20243;-15
2022/05/28 00:17:41;;;;;;;9.68;2.42;;;;;;;;;;5103118;28;20243;-15
2022/05/28 00:20:09;;;;;;;7.60;2.55;;;;;;;;;;5104766;27;20225;-15
2022/05/28 00:22:37;;;;;;;5.78;1.85;;;;;;;;;;5105610;28;20810;-15
2022/05/28 00:25:06;;;;;;;7.50;1.80;;;;;;;;;;5103879;28;20239;-15
2022/05/28 00:27:33;;;;;;;6.60;1.92;;;;;;;;;;5103984;28;20225;-15
2022/05/28 00:30:02;;;;;;;9.55;2.00;;;;;;;;;;5106501;28;20232;-15
2022/05/28 00:32:29;;;;;;;6.75;2.28;;;;;;;;;;5101672;28;20722;-15
2022/05/28 00:34:56;;;;;;;5.75;2.20;;;;;;;;;;5099095;28;20241;-15
2022/05/28 00:37:24;;;;;;;6.13;1.70;;;;;;;;;;5106031;28;20792;-15
2022/05/28 00:39:51;;;;;;;9.35;2.40;;;;;;;;;;5105768;28;20586;-15
2022/05/28 00:42:18;;;;;;;9.35;2.50;;;;;;;;;;5105008;28;20282;-15
2022/05/28 00:44:46;;;;;;;7.03;1.98;;;;;;;;;;5109561;28;20232;-15
2022/05/28 00:47:14;;;;;;;6.28;1.65;;;;;;;;;;5107358;28;20220;-15
2022/05/28 00:49:42;;;;;;;5.75;2.05;;;;;;;;;;5106073;28;20331;-15
2022/05/28 00:52:10;;;;;;;9.52;2.22;;;;;;;;;;5106285;27;20324;-17
2022/05/28 00:54:38;;;;;;;6.70;1.75;;;;;;;;;;5109547;28;20733;-15
2022/05/28 00:57:06;;;;;;;7.00;2.08;;;;;;;;;;5105491;28;20235;-15
2022/05/28 00:59:33;;;;;;;6.45;1.70;;;;;;;;;;5108275;28;20311;-15
2022/05/28 01:02:01;;;;;;;5.75;1.42;;;;;;;;;;5109641;28;20238;-15
2022/05/28 01:04:32;;;;;;;8.45;1.80;;;;;;;;;;5112440;27;20251;-15
2022/05/28 01:07:00;;;;;;;6.45;1.70;;;;;;;;;;5107758;28;20224;-15
2022/05/28 01:09:30;;;;;;;5.78;1.90;;;;;;;;;;5106172;28;20240;-15
2022/05/28 01:12:01;;;;;;;6.55;1.88;;;;;;;;;;5109551;27;20228;-15
2022/05/28 01:14:29;;;;;;;8.85;1.90;;;;;;;;;;5105044;27;20320;-15
2022/05/28 01:16:58;;;;;;;4.35;1.50;;;;;;;;;;5108106;27;20234;-15
2022/05/28 01:19:28;;;;;;;6.30;1.90;;;;;;;;;;5104385;27;20225;-15
2022/05/28 01:21:59;;;;;;;5.15;1.70;;;;;;;;;;5104979;27;20251;-15
2022/05/28 01:24:29;;;;;;;7.25;1.90;;;;;;;;;;5106469;28;20244;-15
2022/05/28 01:26:58;;;;;;;6.55;2.15;;;;;;;;;;5107765;28;20687;-15
2022/05/28 01:29:26;;;;;;;5.30;1.75;;;;;;;;;;5104871;28;21057;-15
2022/05/28 01:31:53;;;;;;;5.60;2.00;;;;;;;;;;5106001;28;20227;-15
2022/05/28 01:34:20;;;;;;;8.20;1.92;;;;;;;;;;5108466;28;20235;-15
2022/05/28 01:36:48;;;;;;;7.57;2.28;;;;;;;;;;5106495;28;20225;-15
2022/05/28 01:39:17;;;;;;;5.55;1.83;;;;;;;;;;5105241;28;21017;-15
2022/05/28 01:41:44;;;;;;;6.38;2.20;;;;;;;;;;5104629;28;20232;-15
2022/05/28 01:44:15;;;;;;;8.05;1.98;;;;;;;;;;5106257;28;20283;-15
2022/05/28 01:46:42;;;;;;;10.07;2.55;;;;;;;;;;5106389;28;20226;-15
2022/05/28 01:49:10;;;;;;;7.70;2.42;;;;;;;;;;5108038;28;20236;-15
2022/05/28 01:51:38;;;;;;;5.25;1.75;;;;;;;;;;5107289;28;20228;-15
2022/05/28 01:54:09;;;;;;;7.53;2.25;;;;;;;;;;5103719;28;20232;-15
2022/05/28 01:56:37;;;;;;;8.05;2.00;;;;;;;;;;5108129;27;20307;-15
2022/05/28 01:59:04;;;;;;;7.03;1.95;;;;;;;;;;5107269;28;20228;-15
2022/05/28 02:01:33;;;;;;;5.63;2.00;;;;;;;;;;5106974;28;20238;-15
2022/05/28 02:04:05;;;;;;;7.22;1.88;;;;;;;;;;5107080;28;20290;-15
2022/05/28 02:06:33;;;;;;;6.78;1.90;;;;;;;;;;5104671;28;20251;-15
2022/05/28 02:09:00;;;;;;;8.57;2.20;;;;;;;;;;5102022;28;21094;-15
2022/05/28 02:11:28;;;;;;;5.40;1.60;;;;;;;;;;5103765;28;20237;-15
2022/05/28 02:13:56;;;;;;;4.78;2.05;;;;;;;;;;5104176;28;20235;-15
2022/05/28 02:16:26;;;;;;;8.20;1.70;;;;;;;;;;5106432;28;20232;-15
2022/05/28 02:18:55;;;;;;;5.57;1.75;;;;;;;;;;5102904;28;20327;-15
2022/05/28 02:21:25;;;;;;;6.65;1.77;;;;;;;;;;5124134;22;20243;-20
2022/05/28 02:23:53;;;;;;;6.60;1.90;;;;;;;;;;5120087;27;20283;-20
2022/05/28 02:26:22;;;;;;;6.50;2.30;;;;;;;;;;5119273;27;20224;-19
2022/05/28 02:28:49;;;;;;;6.63;2.05;;;;;;;;;;5120950;27;20228;-20
2022/05/28 02:31:18;;;;;;;4.88;1.65;;;;;;;;;;5113759;27;20234;-20
2022/05/28 02:33:46;;;;;;;5.25;1.52;;;;;;;;;;5114928;27;20227;-19
2022/05/28 02:36:15;;;;;;;5.82;1.75;;;;;;;;;;5121925;27;20342;-18
2022/05/28 02:38:43;;;;;;;4.72;1.60;;;;;;;;;;5124734;27;20601;-19
2022/05/28 02:41:10;;;;;;;6.10;1.90;;;;;;;;;;5122035;27;20280;-19
2022/05/28 02:43:38;;;;;;;4.53;1.60;;;;;;;;;;5117868;27;20627;-19
2022/05/28 02:46:05;;;;;;;7.45;2.15;;;;;;;;;;5115689;27;20314;-20
2022/05/28 02:48:33;;;;;;;5.63;1.75;;;;;;;;;;5119095;27;20239;-19
2022/05/28 02:51:03;;;;;;;5.25;1.52;;;;;;;;;;5122668;27;20713;-19
2022/05/28 02:53:32;;;;;;;6.38;2.00;;;;;;;;;;5120194;27;20236;-19
2022/05/28 02:55:59;;;;;;;4.95;1.60;;;;;;;;;;5122226;27;20293;-19
2022/05/28 02:58:26;;;;;;;4.45;1.83;;;;;;;;;;5121941;27;20342;-20
2022/05/28 03:00:54;;;;;;;5.57;1.65;;;;;;;;;;5122683;27;20228;-20
2022/05/28 03:03:21;;;;;;;4.82;2.13;;;;;;;;;;5121443;27;20702;-19
2022/05/28 03:05:49;;;;;;;6.20;1.60;;;;;;;;;;5119999;27;20232;-19
2022/05/28 03:08:16;;;;;;;4.63;1.55;;;;;;;;;;5115343;27;20231;-20
2022/05/28 03:10:45;;;;;;;5.53;1.60;;;;;;;;;;5119027;27;20227;-19
2022/05/28 03:13:12;;;;;;;6.88;1.50;;;;;;;;;;5117760;27;20220;-19
2022/05/28 03:15:39;;;;;;;4.07;1.80;;;;;;;;;;5120682;27;20243;-19
2022/05/28 03:18:06;;;;;;;4.80;1.70;;;;;;;;;;5118196;27;20243;-19
2022/05/28 03:20:34;;;;;;;5.88;1.80;;;;;;;;;;5120661;27;20219;-19
2022/05/28 03:23:01;;;;;;;5.05;1.70;;;;;;;;;;5099207;28;20236;-19
2022/05/28 03:25:28;;;;;;;6.15;2.00;;;;;;;;;;5103366;28;20240;-19
2022/05/28 03:27:57;;;;;;;5.55;1.50;;;;;;;;;;5098025;28;20239;-19
2022/05/28 03:30:25;;;;;;;5.65;1.45;;;;;;;;;;5095833;28;20228;-19
2022/05/28 03:32:52;;;;;;;4.38;1.50;;;;;;;;;;5097512;28;20229;-19
2022/05/28 03:35:19;;;;;;;4.55;1.92;;;;;;;;;;5098023;28;20237;-20
2022/05/28 03:37:47;;;;;;;4.45;1.55;;;;;;;;;;5095811;28;20239;-20
2022/05/28 03:40:14;;;;;;;3.75;1.30;;;;;;;;;;5102057;28;20225;-19
2022/05/28 03:42:41;;;;;;;7.75;1.90;;;;;;;;;;5101099;27;20232;-20
2022/05/28 03:45:10;;;;;;;5.80;1.50;;;;;;;;;;5100306;28;20715;-19
2022/05/28 03:47:38;;;;;;;3.40;1.27;;;;;;;;;;5095122;28;20228;-19
2022/05/28 03:50:05;;;;;;;5.57;1.27;;;;;;;;;;5100556;28;20755;-19
2022/05/28 03:52:33;;;;;;;4.78;1.30;;;;;;;;;;5100506;28;20225;-19
2022/05/28 03:55:00;;;;;;;3.38;1.17;;;;;;;;;;5099126;28;20229;-19
2022/05/28 03:57:28;;;;;;;5.20;1.75;;;;;;;;;;5100447;28;20948;-19
2022/05/28 03:59:56;;;;;;;4.20;1.70;;;;;;;;;;5097806;28;20229;-20
2022/05/28 04:02:25;;;;;;;5.18;1.55;;;;;;;;;;5099446;28;20232;-20
2022/05/28 04:04:52;;;;;;;3.22;1.05;;;;;;;;;;5101194;28;20236;-19
2022/05/28 04:07:20;;;;;;;4.10;1.45;;;;;;;;;;5096413;28;20254;-19
2022/05/28 04:09:47;;;;;;;3.38;1.45;;;;;;;;;;5092824;28;20239;-19
2022/05/28 04:12:15;;;;;;;4.90;1.20;;;;;;;;;;5102148;28;20393;-19
2022/05/28 04:14:43;;;;;;;3.20;1.10;;;;;;;;;;5100579;28;20560;-19
2022/05/28 04:17:11;;;;;;;4.82;1.30;;;;;;;;;;5097324;28;20633;-19
2022/05/28 04:19:40;;;;;;;3.67;1.13;;;;;;;;;;5100610;28;20692;-19
2022/05/28 04:22:07;;;;;;;2.80;1.20;;;;;;;;;;5100819;28;20244;-20
2022/05/28 04:24:35;;;;;;;3.00;1.30;;;;;;;;;;5100029;28;20239;-20
2022/05/28 04:27:02;;;;;;;3.38;1.02;;;;;;;;;;5100254;28;20220;-19
2022/05/28 04:29:29;;;;;;;5.15;1.23;;;;;;;;;;5097608;28;20712;-18
2022/05/28 04:31:57;;;;;;;2.40;1.00;;;;;;;;;;5097882;28;20232;-18
2022/05/28 04:34:24;;;;;;;4.75;1.42;;;;;;;;;;5096005;28;21077;-19
2022/05/28 04:36:53;;;;;;;2.45;1.13;;;;;;;;;;5101552;28;20287;-19
2022/05/28 04:39:20;;;;;;;4.45;1.23;;;;;;;;;;5088733;28;20223;-19
2022/05/28 04:41:47;;;;;;;3.65;1.20;;;;;;;;;;5095660;28;20711;-19
2022/05/28 04:44:15;;;;;;;3.88;1.30;;;;;;;;;;5099894;28;20236;-20
2022/05/28 04:46:42;;;;;;;2.72;1.02;;;;;;;;;;5094511;28;20239;-19
2022/05/28 04:49:09;;;;;;;4.30;1.20;;;;;;;;;;5100958;28;20232;-19
2022/05/28 04:51:36;;;;;;;3.70;1.20;;;;;;;;;;5095464;28;20264;-20
2022/05/28 04:54:05;;;;;;;4.85;1.10;;;;;;;;;;5096325;28;20243;-20
2022/05/28 04:56:33;;;;;;;4.50;1.30;;;;;;;;;;5103521;28;20767;-19
2022/05/28 04:59:00;;;;;;;5.22;1.20;;;;;;;;;;5101389;28;20221;-20
2022/05/28 05:01:27;;;;;;;3.47;1.10;;;;;;;;;;5096269;28;20699;-19
2022/05/28 05:03:55;;;;;;;4.50;1.05;;;;;;;;;;5105178;28;20232;-19
2022/05/28 05:06:22;;;;;;;3.20;1.25;;;;;;;;;;5100863;28;20233;-19
2022/05/28 05:08:50;;;;;;;3.28;1.02;;;;;;;;;;5100399;28;20333;-19
2022/05/28 05:11:19;;;;;;;3.28;1.10;;;;;;;;;;5101440;28;20232;-19
2022/05/28 05:13:46;;;;;;;7.22;1.25;;;;;;;;;;5101475;28;20259;-20
2022/05/28 05:16:14;;;;;;;5.20;1.30;;;;;;;;;;5101793;28;20704;-19
2022/05/28 05:18:42;;;;;;;2.88;1.00;;;;;;;;;;5106410;28;20224;-19
2022/05/28 05:21:11;;;;;;;2.42;1.00;;;;;;;;;;5101787;28;20248;-19
2022/05/28 05:23:39;;;;;;;3.15;1.10;;;;;;;;;;5104421;28;20694;-19
2022/05/28 05:26:08;;;;;;;4.25;1.10;;;;;;;;;;5100932;28;20240;-18
2022/05/28 05:28:38;;;;;;;3.58;1.10;;;;;;;;;;5102150;27;20228;-20
2022/05/28 05:31:10;;;;;;;5.40;1.00;;;;;;;;;;5104086;28;20758;-20
2022/05/28 05:33:38;;;;;;;2.95;1.00;;;;;;;;;;5100398;28;20225;-20
2022/05/28 05:36:05;;;;;;;2.10;0.93;;;;;;;;;;5102821;28;20224;-19
2022/05/28 05:38:33;;;;;;;3.72;1.30;;;;;;;;;;5099564;28;20224;-19
2022/05/28 05:41:00;;;;;;;3.03;0.90;;;;;;;;;;5103186;28;20296;-19
2022/05/28 05:43:27;;;;;;;3.28;1.13;;;;;;;;;;5100972;28;20224;-20
2022/05/28 05:45:56;;;;;;;2.90;0.77;;;;;;;;;;5101043;28;20294;-19
2022/05/28 05:48:24;;;;;;;5.57;1.17;;;;;;;;;;5102701;28;20271;-19
2022/05/28 05:50:51;;;;;;;4.53;1.00;;;;;;;;;;5101112;28;20228;-19
2022/05/28 05:53:19;;;;;;;3.47;1.05;;;;;;;;;;5105780;28;20228;-19
2022/05/28 05:55:46;;;;;;;5.78;1.63;;;;;;;;;;5094079;28;20233;-19
2022/05/28 05:58:13;;;;;;;3.75;1.00;;;;;;;;;;5098425;28;20224;-19
2022/05/28 06:00:41;;;;;;;4.93;1.23;;;;;;;;;;5101049;28;20242;-19
2022/05/28 06:03:14;;;;;;;2.33;0.80;;;;;;;;;;5100569;28;20774;-19
2022/05/28 06:05:41;;;;;;;2.67;0.82;;;;;;;;;;5102237;27;20258;-19
2022/05/28 06:08:09;;;;;;;6.60;1.38;;;;;;;;;;5102540;28;20240;-19
2022/05/28 06:10:36;;;;;;;5.00;1.10;;;;;;;;;;5101267;28;20236;-19
2022/05/28 06:13:03;;;;;;;3.72;1.05;;;;;;;;;;5098185;28;20699;-19
2022/05/28 06:15:31;;;;;;;2.83;0.80;;;;;;;;;;5101529;28;20236;-19
2022/05/28 06:17:58;;;;;;;3.78;1.30;;;;;;;;;;5091702;28;20233;-19
2022/05/28 06:20:27;;;;;;;4.38;1.00;;;;;;;;;;5103299;28;20243;-20
2022/05/28 06:22:54;;;;;;;3.65;0.80;;;;;;;;;;5102273;28;20272;-19
2022/05/28 06:25:21;;;;;;;4.30;1.27;;;;;;;;;;5089736;28;20228;-19
2022/05/28 06:27:49;;;;;;;3.78;1.05;;;;;;;;;;5103442;28;20287;-19
2022/05/28 06:30:16;;;;;;;4.22;0.85;;;;;;;;;;5091095;28;20228;-19
2022/05/28 06:32:43;;;;;;;2.60;1.00;;;;;;;;;;5099370;28;20857;-19
2022/05/28 06:35:11;;;;;;;3.78;1.10;;;;;;;;;;5103205;28;20232;-19
2022/05/28 06:37:39;;;;;;;5.88;1.10;;;;;;;;;;5099484;28;20224;-19
2022/05/28 06:40:07;;;;;;;5.82;1.60;;;;;;;;;;5102170;28;21034;-20
2022/05/28 06:42:34;;;;;;;4.15;0.82;;;;;;;;;;5100449;28;20991;-19
2022/05/28 06:45:02;;;;;;;3.33;1.00;;;;;;;;;;5100136;28;20226;-19
2022/05/28 06:47:29;;;;;;;2.55;0.68;;;;;;;;;;5099001;28;21064;-20
2022/05/28 06:52:43;;;;;;;5.03;0.90;;;;;;;;;;5100850;27;20231;-19
2022/05/28 06:55:10;;;;;;;5.20;1.00;;;;;;;;;;5097181;28;21186;-20
2022/05/28 06:57:37;;;;;;;4.15;0.80;;;;;;;;;;5101225;28;20251;-20
2022/05/28 07:00:08;;;;;;;4.82;1.00;;;;;;;;;;5096517;28;20235;-19
2022/05/28 07:02:35;;;;;;;5.30;1.02;;;;;;;;;;5100807;28;20233;-19
2022/05/28 07:05:02;;;;;;;3.95;1.17;;;;;;;;;;5098245;28;20247;-19
2022/05/28 07:07:30;;;;;;;4.60;1.20;;;;;;;;;;5097272;28;20266;-19
2022/05/28 07:09:58;;;;;;;4.57;0.90;;;;;;;;;;5102667;28;20254;-19
2022/05/28 07:12:26;;;;;;;4.03;0.82;;;;;;;;;;5099650;28;20232;-19
2022/05/28 07:14:53;;;;;;;5.43;1.10;;;;;;;;;;5102447;28;20244;-19
2022/05/28 07:17:20;;;;;;;6.07;1.48;;;;;;;;;;5091408;28;21043;-20
2022/05/28 07:19:48;;;;;;;4.60;1.15;;;;;;;;;;5102936;28;20965;-19
2022/05/28 07:22:15;;;;;;;4.65;1.00;;;;;;;;;;5099766;28;20248;-19
2022/05/28 07:24:42;;;;;;;2.83;0.90;;;;;;;;;;5099964;28;20232;-19
2022/05/28 07:27:11;;;;;;;6.25;1.02;;;;;;;;;;5098133;28;20240;-20
2022/05/28 07:29:39;;;;;;;4.55;1.02;;;;;;;;;;5097326;28;20228;-19
2022/05/28 07:32:07;;;;;;;4.25;1.10;;;;;;;;;;5096032;27;20228;-19
2022/05/28 07:34:35;;;;;;;2.70;0.88;;;;;;;;;;5099252;28;20233;-19
2022/05/28 07:37:02;;;;;;;5.47;1.10;;;;;;;;;;5100290;28;20228;-20
2022/05/28 07:39:29;;;;;;;4.45;1.20;;;;;;;;;;5100572;28;20225;-20
2022/05/28 07:41:56;;;;;;;5.40;1.23;;;;;;;;;;5097803;28;20228;-19
2022/05/28 07:44:26;;;;;;;4.60;1.00;;;;;;;;;;5101533;28;20235;-20
2022/05/28 07:46:54;;;;;;;4.07;1.10;;;;;;;;;;5104107;28;20255;-19
2022/05/28 07:49:21;;;;;;;3.90;0.93;;;;;;;;;;5101342;28;20224;-20
2022/05/28 07:51:49;;;;;;;5.32;1.15;;;;;;;;;;5097572;28;20220;-19
2022/05/28 07:54:17;;;;;;;4.28;1.00;;;;;;;;;;5102644;28;21039;-19
2022/05/28 07:56:44;;;;;;;3.55;0.82;;;;;;;;;;5097523;28;20715;-19
2022/05/28 07:59:11;;;;;;;4.28;0.93;;;;;;;;;;5099163;28;20228;-19
2022/05/28 08:01:40;;;;;;;5.20;1.40;;;;;;;;;;5098967;28;20738;-19
2022/05/28 08:04:08;;;;;;;5.30;1.08;;;;;;;;;;5100163;28;21129;-19
2022/05/28 08:06:35;;;;;;;4.68;1.23;;;;;;;;;;5102009;28;20232;-20
2022/05/28 08:09:03;;;;;;;4.45;0.90;;;;;;;;;;5101092;28;20228;-20
2022/05/28 08:11:30;;;;;;;3.63;0.90;;;;;;;;;;5098179;28;20235;-19
2022/05/28 08:13:57;;;;;;;3.90;1.10;;;;;;;;;;5101853;28;20232;-20
2022/05/28 08:16:31;;;;;;;4.75;1.00;;;;;;;;;;5100635;28;20232;-20
2022/05/28 08:19:00;;;;;;;3.70;0.93;;;;;;;;;;5096955;28;20228;-19
2022/05/28 08:24:12;;;;;;;5.53;1.23;;;;;;;;;;5101673;28;20232;-19
2022/05/28 08:26:40;;;;;;;6.45;1.25;;;;;;;;;;5099916;28;20237;-19
2022/05/28 08:29:07;;;;;;;8.40;1.80;;;;;;;;;;5103614;28;20229;-19
2022/05/28 08:31:34;;;;;;;4.47;1.20;;;;;;;;;;5101742;28;20233;-19
2022/05/28 08:34:03;;;;;;;4.38;1.05;;;;;;;;;;5101994;28;20241;-19
2022/05/28 08:36:30;;;;;;;4.22;1.17;;;;;;;;;;5103855;28;20258;-20
2022/05/28 08:38:58;;;;;;;6.63;1.40;;;;;;;;;;5103016;28;20227;-19
2022/05/28 08:41:25;;;;;;;7.57;1.52;;;;;;;;;;5096788;28;20233;-19
2022/05/28 08:43:55;;;;;;;8.95;1.48;;;;;;;;;;5103297;28;20224;-19
2022/05/28 08:46:23;;;;;;;6.88;1.83;;;;;;;;;;5104123;28;20232;-19
2022/05/28 08:48:51;;;;;;;3.75;1.42;;;;;;;;;;5108434;27;20235;-20
2022/05/28 08:51:22;;;;;;;3.85;1.08;;;;;;;;;;5099092;28;20228;-20
2022/05/28 08:53:51;;;;;;;5.57;1.40;;;;;;;;;;5099169;28;21102;-20
2022/05/28 08:56:19;;;;;;;5.57;1.73;;;;;;;;;;5098269;28;20224;-19
2022/05/28 08:58:48;;;;;;;4.55;1.25;;;;;;;;;;5097788;28;20224;-18
2022/05/28 09:01:17;;;;;;;6.15;1.30;;;;;;;;;;5097537;28;20232;-19
2022/05/28 09:03:45;;;;;;;6.75;1.83;;;;;;;;;;5102285;28;20224;-19
2022/05/28 09:06:13;;;;;;;5.35;1.20;;;;;;;;;;5103507;28;20231;-19
2022/05/28 09:08:42;;;;;;;5.78;1.35;;;;;;;;;;5102760;28;20243;-20
2022/05/28 09:11:11;;;;;;;8.68;1.85;;;;;;;;;;5101270;28;20259;-19
2022/05/28 09:13:39;;;;;;;7.05;1.27;;;;;;;;;;5104493;28;21041;-19
2022/05/28 09:16:07;;;;;;;6.43;1.90;;;;;;;;;;5102720;28;20228;-20
2022/05/28 09:18:35;;;;;;;4.85;1.50;;;;;;;;;;5103227;28;20224;-19
2022/05/28 09:21:03;;;;;;;6.43;1.65;;;;;;;;;;5104446;28;20236;-20
2022/05/28 09:23:32;;;;;;;4.78;1.10;;;;;;;;;;5104957;28;20234;-19
2022/05/28 09:26:00;;;;;;;4.97;1.63;;;;;;;;;;5102047;28;20694;-19
2022/05/28 09:28:31;;;;;;;4.78;1.20;;;;;;;;;;5104661;28;20298;-20
2022/05/28 09:31:00;;;;;;;4.47;1.20;;;;;;;;;;5093533;28;20229;-19
2022/05/28 09:33:46;;;;;;;4.75;1.52;;;;;;;;;;5099794;28;20228;-19
2022/05/28 09:36:20;;;;;;;6.57;1.42;;;;;;;;;;5098822;28;20611;-19
2022/05/28 09:38:50;;;;;;;7.18;1.40;;;;;;;;;;5096184;27;20227;-19
2022/05/28 09:41:25;;;;;;;4.97;1.50;;;;;;;;;;5099148;28;20236;-19
2022/05/28 09:43:55;;;;;;;5.13;1.40;;;;;;;;;;5095912;28;20229;-19
2022/05/28 09:46:24;;;;;;;7.65;1.67;;;;;;;;;;5100564;28;20229;-19
2022/05/28 09:48:58;;;;;;;5.80;1.50;;;;;;;;;;5104591;28;20246;-19
2022/05/28 09:51:26;;;;;;;3.40;1.13;;;;;;;;;;5100244;28;20233;-19
2022/05/28 09:56:44;;;;;;;6.05;1.60;;;;;;;;;;5104802;27;20239;-19
2022/05/28 09:59:18;;;;;;;5.45;1.40;;;;;;;;;;5101278;28;20239;-20
2022/05/28 10:01:51;;;;;;;4.20;1.20;;;;;;;;;;5093644;28;20229;-19
2022/05/28 10:04:29;;;;;;;8.05;1.38;;;;;;;;;;5096905;28;20279;-20
2022/05/28 10:06:57;;;;;;;6.15;1.40;;;;;;;;;;5096393;28;20226;-20
2022/05/28 10:09:25;;;;;;;3.92;1.10;;;;;;;;;;5102133;28;20245;-19
2022/05/28 10:11:54;;;;;;;4.82;1.30;;;;;;;;;;5102576;28;20229;-20
2022/05/28 10:14:22;;;;;;;5.35;1.38;;;;;;;;;;5103007;28;20235;-20
2022/05/28 10:16:53;;;;;;;8.63;1.75;;;;;;;;;;5101762;28;20232;-19
2022/05/28 10:19:23;;;;;;;4.50;1.15;;;;;;;;;;5101330;28;20349;-20
2022/05/28 10:21:51;;;;;;;2.38;1.20;;;;;;;;;;5103972;27;20248;-20
2022/05/28 10:24:18;;;;;;;4.45;1.10;;;;;;;;;;5096709;28;20231;-19
2022/05/28 10:26:46;;;;;;;3.92;1.02;;;;;;;;;;5097240;28;20228;-19
2022/05/28 10:29:19;;;;;;;4.32;1.50;;;;;;;;;;5102592;28;20240;-19
2022/05/28 10:31:46;;;;;;;4.03;1.75;;;;;;;;;;5093779;28;20229;-18
2022/05/28 10:34:28;;;;;;;4.85;1.27;;;;;;;;;;5100139;28;20714;-19
2022/05/28 10:37:05;;;;;;;6.05;1.30;;;;;;;;;;5102580;28;21102;-19
2022/05/28 10:39:32;;;;;;;5.38;1.38;;;;;;;;;;5102582;28;20239;-20
2022/05/28 10:41:59;;;;;;;4.82;1.35;;;;;;;;;;5099123;28;20220;-20
2022/05/28 10:44:28;;;;;;;5.82;1.60;;;;;;;;;;5100166;28;20235;-20
2022/05/28 10:47:04;;;;;;;8.15;1.25;;;;;;;;;;5104215;28;20224;-20
2022/05/28 10:49:33;;;;;;;4.90;1.40;;;;;;;;;;5102015;28;20279;-19
2022/05/28 10:52:02;;;;;;;4.68;1.58;;;;;;;;;;5092583;28;20223;-20
2022/05/28 10:54:33;;;;;;;4.13;1.35;;;;;;;;;;5102665;28;20232;-20
2022/05/28 10:57:03;;;;;;;5.43;1.17;;;;;;;;;;5094101;28;20240;-19
2022/05/28 10:59:57;;;;;;;3.78;1.08;;;;;;;;;;5097769;28;20827;-20
2022/05/28 11:02:34;;;;;;;4.55;1.17;;;;;;;;;;5052186;28;20248;-19
2022/05/28 11:05:03;;;;;;;4.93;1.10;;;;;;;;;;5099195;28;20702;-19
2022/05/28 11:07:34;;;;;;;5.25;1.92;;;;;;;;;;5099961;28;20220;-19
2022/05/28 11:10:08;;;;;;;6.18;1.20;;;;;;;;;;5099082;28;21078;-20
2022/05/28 11:12:49;;;;;;;4.53;1.25;;;;;;;;;;5098341;28;20318;-20
2022/05/28 11:15:24;;;;;;;4.32;1.08;;;;;;;;;;5097208;28;20276;-19
2022/05/28 11:17:57;;;;;;;5.40;1.67;;;;;;;;;;5090581;28;20765;-18
2022/05/28 11:20:26;;;;;;;4.45;1.38;;;;;;;;;;5096836;28;20260;-19
2022/05/28 11:22:58;;;;;;;4.45;1.58;;;;;;;;;;5101334;28;20704;-19
2022/05/28 11:25:26;;;;;;;4.90;1.50;;;;;;;;;;5101037;27;20239;-19
2022/05/28 11:27:57;;;;;;;4.75;1.20;;;;;;;;;;5102166;28;20235;-19
2022/05/28 11:30:25;;;;;;;6.85;1.50;;;;;;;;;;5096961;28;20228;-20
2022/05/28 11:32:54;;;;;;;4.10;1.27;;;;;;;;;;5097391;28;20231;-19
2022/05/28 11:35:26;;;;;;;5.75;1.35;;;;;;;;;;5100900;28;20220;-20
2022/05/28 11:37:53;;;;;;;4.63;1.13;;;;;;;;;;5102327;28;20879;-19
2022/05/28 11:40:22;;;;;;;3.15;1.10;;;;;;;;;;5098601;28;20699;-20
2022/05/28 11:42:51;;;;;;;5.43;1.73;;;;;;;;;;5096727;27;20686;-19
2022/05/28 11:45:20;;;;;;;5.65;1.20;;;;;;;;;;5095060;28;20232;-19
2022/05/28 11:47:49;;;;;;;5.35;1.30;;;;;;;;;;5092498;28;20239;-19
2022/05/28 11:53:05;;;;;;;3.90;1.30;;;;;;;;;;5100654;28;21009;-19
2022/05/28 11:55:34;;;;;;;3.63;1.45;;;;;;;;;;5098287;27;20225;-19
2022/05/28 11:58:03;;;;;;;4.35;1.42;;;;;;;;;;5101962;28;20231;-19
2022/05/28 12:00:30;;;;;;;2.42;1.05;;;;;;;;;;5099024;28;20229;-19
2022/05/28 12:02:58;;;;;;;4.35;1.35;;;;;;;;;;5102415;27;20219;-19
2022/05/28 12:05:27;;;;;;;5.45;1.25;;;;;;;;;;5105664;28;20696;-20
2022/05/28 12:07:56;;;;;;;6.35;1.40;;;;;;;;;;5102623;28;20745;-19
2022/05/28 12:10:35;;;;;;;7.20;1.67;;;;;;;;;;5107328;28;20235;-20
2022/05/28 12:13:03;;;;;;;3.75;1.33;;;;;;;;;;5103303;28;20235;-19
2022/05/28 12:15:30;;;;;;;3.90;1.60;;;;;;;;;;5089642;28;20229;-19
2022/05/28 12:18:00;;;;;;;5.97;1.27;;;;;;;;;;5103598;28;20286;-19
2022/05/28 12:20:28;;;;;;;4.93;1.30;;;;;;;;;;5102944;28;20232;-19
2022/05/28 12:22:55;;;;;;;7.15;1.80;;;;;;;;;;5105287;28;20588;-20
2022/05/28 12:25:30;;;;;;;7.55;1.50;;;;;;;;;;5095333;28;20236;-20
2022/05/28 12:28:09;;;;;;;4.57;1.17;;;;;;;;;;5104702;28;20279;-19
2022/05/28 12:30:48;;;;;;;5.70;1.63;;;;;;;;;;5102453;28;21057;-19
2022/05/28 12:33:20;;;;;;;3.55;1.17;;;;;;;;;;5093449;28;20234;-19
2022/05/28 12:35:50;;;;;;;4.10;1.20;;;;;;;;;;5104436;28;20232;-20
2022/05/28 12:38:19;;;;;;;5.53;1.90;;;;;;;;;;5096542;28;20254;-19
2022/05/28 12:40:49;;;;;;;4.30;1.60;;;;;;;;;;5106116;28;20228;-20
2022/05/28 12:43:19;;;;;;;3.72;1.42;;;;;;;;;;5099948;28;20233;-19
2022/05/28 12:45:46;;;;;;;3.40;1.17;;;;;;;;;;5094977;28;20232;-19
2022/05/28 12:48:14;;;;;;;4.90;1.40;;;;;;;;;;5104068;28;20232;-20
2022/05/28 12:50:51;;;;;;;4.03;1.27;;;;;;;;;;5098715;28;20233;-19
2022/05/28 12:53:18;;;;;;;4.22;1.20;;;;;;;;;;5103412;28;20711;-19
2022/05/28 12:55:46;;;;;;;4.70;1.40;;;;;;;;;;5095589;28;20224;-19
2022/05/28 12:58:15;;;;;;;4.55;1.38;;;;;;;;;;5104669;28;20243;-19
2022/05/28 13:00:47;;;;;;;3.75;1.35;;;;;;;;;;5102692;28;20228;-19
2022/05/28 13:03:15;;;;;;;8.13;1.40;;;;;;;;;;5102111;28;21117;-19
2022/05/28 13:05:44;;;;;;;4.45;1.30;;;;;;;;;;5105111;28;20232;-20
2022/05/28 13:08:12;;;;;;;3.78;1.27;;;;;;;;;;5100077;28;20635;-20
2022/05/28 13:10:44;;;;;;;4.30;1.40;;;;;;;;;;5103890;28;20727;-19
2022/05/28 13:13:16;;;;;;;5.45;1.50;;;;;;;;;;5102160;27;20721;-19
2022/05/28 13:15:58;;;;;;;2.70;1.10;;;;;;;;;;5097988;28;20224;-19
2022/05/28 13:18:44;;;;;;;6.28;1.83;;;;;;;;;;5096781;28;20691;-20
2022/05/28 13:21:15;;;;;;;4.68;1.73;;;;;;;;;;5102105;28;20296;-19
2022/05/28 13:23:47;;;;;;;4.97;1.40;;;;;;;;;;5101601;28;20960;-20
2022/05/28 13:26:20;;;;;;;4.18;1.20;;;;;;;;;;5099277;28;20233;-20
2022/05/28 13:28:59;;;;;;;7.13;1.40;;;;;;;;;;5096578;28;20236;-19
2022/05/28 13:31:30;;;;;;;3.15;1.25;;;;;;;;;;5098502;28;20228;-19
2022/05/28 13:33:57;;;;;;;4.15;1.17;;;;;;;;;;5102196;28;20241;-19
2022/05/28 13:36:26;;;;;;;3.25;0.98;;;;;;;;;;5105959;28;21041;-19
2022/05/28 13:38:54;;;;;;;3.17;1.25;;;;;;;;;;5101646;28;20225;-20
2022/05/28 13:41:23;;;;;;;3.85;1.20;;;;;;;;;;5102534;28;20742;-19
2022/05/28 13:43:51;;;;;;;3.20;1.45;;;;;;;;;;5102796;28;20233;-19
2022/05/28 13:46:22;;;;;;;3.40;1.08;;;;;;;;;;5095720;28;20748;-19
2022/05/28 13:48:52;;;;;;;5.70;1.08;;;;;;;;;;5102846;28;20311;-19
2022/05/28 13:51:19;;;;;;;2.70;1.15;;;;;;;;;;5095129;28;20237;-20
2022/05/28 13:53:47;;;;;;;5.10;1.15;;;;;;;;;;5096792;28;20264;-19
2022/05/28 13:56:15;;;;;;;3.55;1.23;;;;;;;;;;5101037;28;20229;-19
2022/05/28 13:58:44;;;;;;;6.43;1.48;;;;;;;;;;5104195;28;20231;-20
2022/05/28 14:01:21;;;;;;;2.78;1.27;;;;;;;;;;5100850;28;20679;-19
2022/05/28 14:03:49;;;;;;;3.75;1.02;;;;;;;;;;5094660;28;20830;-19
2022/05/28 14:06:18;;;;;;;3.97;1.45;;;;;;;;;;5099386;28;20267;-19
2022/05/28 14:08:46;;;;;;;2.92;0.85;;;;;;;;;;5102740;28;20232;-20
2022/05/28 14:11:15;;;;;;;3.22;1.42;;;;;;;;;;5103941;28;20699;-20
2022/05/28 14:13:43;;;;;;;5.55;1.00;;;;;;;;;;5104214;28;20239;-19
2022/05/28 14:16:14;;;;;;;5.85;1.17;;;;;;;;;;5100073;28;20240;-19
2022/05/28 14:18:42;;;;;;;4.78;1.27;;;;;;;;;;5101394;28;20331;-19
2022/05/28 14:21:09;;;;;;;8.23;1.20;;;;;;;;;;5102391;28;20266;-19
2022/05/28 14:23:41;;;;;;;4.68;1.02;;;;;;;;;;5101026;28;20236;-18
2022/05/28 14:26:08;;;;;;;2.15;0.98;;;;;;;;;;5102125;28;20239;-19
2022/05/28 14:28:36;;;;;;;6.95;1.10;;;;;;;;;;5104296;28;20228;-20
2022/05/28 14:31:03;;;;;;;3.05;1.05;;;;;;;;;;5101864;28;20233;-20
2022/05/28 14:33:31;;;;;;;5.57;1.33;;;;;;;;;;5102516;28;21098;-19
2022/05/28 14:36:05;;;;;;;4.70;1.25;;;;;;;;;;5099805;28;20232;-18
2022/05/28 14:38:33;;;;;;;5.25;1.20;;;;;;;;;;5098529;28;20272;-19
2022/05/28 14:41:01;;;;;;;3.45;1.05;;;;;;;;;;5099392;28;20236;-19
2022/05/28 14:43:30;;;;;;;6.15;1.15;;;;;;;;;;5102275;28;20228;-19
2022/05/28 14:46:02;;;;;;;2.92;1.00;;;;;;;;;;5103618;28;20289;-20
2022/05/28 14:48:29;;;;;;;3.92;1.10;;;;;;;;;;5100775;28;20232;-19
2022/05/28 14:51:01;;;;;;;3.42;0.98;;;;;;;;;;5101058;28;21038;-19
2022/05/28 14:53:29;;;;;;;5.00;1.05;;;;;;;;;;5104479;28;20247;-19
2022/05/28 14:55:57;;;;;;;3.22;1.15;;;;;;;;;;5101361;28;20243;-20
2022/05/28 14:58:25;;;;;;;4.70;1.00;;;;;;;;;;5100148;28;20974;-19
2022/05/28 15:01:03;;;;;;;3.92;1.20;;;;;;;;;;5097121;28;20236;-20
2022/05/28 15:03:31;;;;;;;4.55;1.23;;;;;;;;;;5102320;28;20287;-19